Main page
METAR-TAF:

METAR-TAF

Airports :

Amman, Jordan

Amman Civil Airport

latitude: 31-59N, longitude: 035-59E, elevation: 767 m

Current weather observation

The report was made 1 hour and 3 minutes ago, at 20:00 UTC
Calm wind
Temperature 7°C
Humidity 87%
Pressure 1023 hPa
Visibility: 4000 m
mist

METAR: OJAM 202000Z 00000KT 4000 BR NSC 07/05 Q1023 NOSIG

Time: 23:03 (21:03 UTC)

Forecast

The report was made 16 hours and 3 minutes ago, at 05:00 UTC
Forecast valid from 20 at 06 UTC to 21 at 12 UTC
Wind 10 kt from the West
Visibility: 4000 m
Few clouds at a height of 2000 ft
Scattered clouds at a height of 2500 ft
mist
Becoming
from 20 at 08 UTC to 20 at 10 UTC
Visibility: 5000 m
haze
Probability 40%
from 21 at 02 UTC to 21 at 06 UTC
Wind 2 kt from variable directions
Visibility: 0800 m
fog

TAF: OJAM 200500Z 2006/2112 26010KT 4000 BR FEW020 SCT025 BECMG 2008/2010 5000 HZ PROB40 2102/2106 VRB02KT 0800 FG

Weather observations and forecasts of more than 4000 airports (METAR and TAF reports).

The available stations are represented by yellow and red dots on the map.

Hover mouse over dot to see the name of the station.

Then click to see weather observations and forecasts.

To change the map : click on the green buttons with a black cross to zoom in, on the green button with a dash to zoom out, or on the green arrows for adjacent maps.


METAR-TAF: